createdAt,value
2022-11-07T17:23:34.308Z,100314.72
2022-11-07T17:32:57.198Z,100351.19
2022-11-07T17:38:19.632Z,100346.25
2022-11-07T17:43:43.819Z,100333.47
2022-11-07T17:49:08.374Z,100326.06
2022-11-07T17:54:29.922Z,100334.00
2022-11-07T17:59:52.152Z,100330.53
2022-11-07T18:05:15.610Z,100325.56
2022-11-07T18:10:37.239Z,100325.56
2022-11-07T18:15:59.377Z,100322.31
2022-11-07T18:21:21.164Z,100322.31
2022-11-07T18:26:43.290Z,100322.13
2022-11-07T18:32:05.291Z,100317.00
2022-11-07T18:37:26.981Z,100312.94
2022-11-07T18:42:48.899Z,100299.19
2022-11-07T18:48:10.461Z,100300.72
2022-11-07T18:53:31.840Z,100307.00
2022-11-07T18:58:53.359Z,100303.91
2022-11-07T19:04:15.071Z,100303.31
2022-11-07T19:09:37.514Z,100288.56
2022-11-07T19:14:59.445Z,100306.13
2022-11-07T19:20:21.840Z,100302.13
2022-11-07T19:25:44.078Z,100315.63
2022-11-07T19:31:08.431Z,100309.16
2022-11-07T19:36:30.882Z,100300.75
2022-11-07T19:41:53.179Z,100308.63
2022-11-07T19:47:14.949Z,100313.78
2022-11-07T19:52:36.939Z,100304.19
2022-11-07T19:57:59.399Z,100296.25
2022-11-07T20:03:21.946Z,100298.59
2022-11-07T20:08:46.618Z,100295.94
2022-11-07T20:14:09.361Z,100282.38
2022-11-07T20:19:32.220Z,100295.94
2022-11-07T20:24:53.899Z,100277.22
2022-11-07T20:30:15.591Z,100254.78
2022-11-07T20:35:38.118Z,100255.28
2022-11-07T20:41:00.621Z,100256.78
2022-11-07T20:46:22.902Z,100252.66
2022-11-07T20:51:45.720Z,100259.47
2022-11-07T20:57:07.552Z,100260.31
2022-11-07T21:02:29.407Z,100262.88
2022-11-07T21:07:51.419Z,100265.38
2022-11-07T21:13:14.849Z,100265.19
2022-11-07T21:18:38.671Z,100259.47
2022-11-07T21:24:01.118Z,100257.44
2022-11-07T21:29:26.640Z,100251.41
2022-11-07T21:34:51.300Z,100246.09
2022-11-07T21:40:14.260Z,100239.88
2022-11-07T21:45:36.569Z,100233.00
2022-11-07T21:50:58.508Z,100238.69
2022-11-07T21:56:23.554Z,100217.63
2022-11-07T22:01:45.370Z,100237.75
2022-11-07T22:07:07.318Z,100226.09
2022-11-07T22:12:29.401Z,100224.41
2022-11-07T22:17:51.179Z,100220.78
2022-11-07T22:23:13.166Z,100219.53
2022-11-07T22:28:35.120Z,100217.63
2022-11-07T22:33:58.619Z,100217.16
2022-11-07T22:39:20.499Z,100217.03
2022-11-07T22:44:42.579Z,100222.03
2022-11-07T22:50:05.173Z,100216.59
2022-11-07T22:55:30.742Z,100206.78
2022-11-07T23:00:52.553Z,100209.00
2022-11-07T23:06:14.859Z,100174.88
2022-11-07T23:11:46.408Z,100192.28
2022-11-07T23:17:09.920Z,100190.94
2022-11-07T23:22:32.591Z,100185.75
2022-11-07T23:27:54.463Z,100191.16
2022-11-07T23:33:16.280Z,100168.31
2022-11-07T23:38:38.181Z,100182.53
2022-11-07T23:44:00.440Z,100174.44
2022-11-07T23:49:41.461Z,100159.53
2022-11-07T23:55:22.021Z,100166.47
